Time;durP1;ratioP1;P1;durP2;ratioP2;P2;SDS_P1;SDS_P2;PMS_P1;PMS_P2;Temp;Humidity;BMP_temperature;BMP_pressure;BME280_temperature;BME280_humidity;BME280_pressure;Samples;Min_cycle;Max_cycle;Signal;HPM_P1;HPM_P2
2022/03/06 00:00:17;;;;;;;21.75;7.55;;;;;;;;;;5019573;28;20049;-51
2022/03/06 00:02:45;;;;;;;21.92;7.40;;;;;;;;;;5018002;28;20136;-58
2022/03/06 00:05:12;;;;;;;24.30;8.17;;;;;;;;;;5024390;28;20084;-55
2022/03/06 00:07:38;;;;;;;23.45;8.32;;;;;;;;;;5028840;28;20053;-55
2022/03/06 00:10:05;;;;;;;27.95;8.60;;;;;;;;;;5015657;28;20076;-56
2022/03/06 00:12:32;;;;;;;26.40;8.88;;;;;;;;;;5045773;28;20063;-60
2022/03/06 00:14:58;;;;;;;21.15;7.15;;;;;;;;;;5022044;28;20110;-57
2022/03/06 00:17:25;;;;;;;20.88;8.90;;;;;;;;;;5027254;28;20061;-59
2022/03/06 00:19:53;;;;;;;18.55;6.57;;;;;;;;;;5023518;28;20053;-57
2022/03/06 00:22:19;;;;;;;19.87;7.23;;;;;;;;;;5042664;28;20487;-56
2022/03/06 00:24:47;;;;;;;21.00;6.90;;;;;;;;;;5021577;28;20053;-59
2022/03/06 00:27:13;;;;;;;19.83;6.60;;;;;;;;;;5026533;28;20059;-59
2022/03/06 00:29:40;;;;;;;25.23;7.40;;;;;;;;;;5022579;28;20088;-58
2022/03/06 00:32:08;;;;;;;26.75;7.53;;;;;;;;;;5023206;28;20068;-60
2022/03/06 00:34:34;;;;;;;19.58;6.72;;;;;;;;;;5023113;28;20052;-57
2022/03/06 00:37:04;;;;;;;19.38;7.75;;;;;;;;;;5023683;28;20080;-56
2022/03/06 00:39:31;;;;;;;22.05;8.95;;;;;;;;;;5023697;28;20076;-55
2022/03/06 00:41:57;;;;;;;23.40;7.63;;;;;;;;;;5018864;28;20052;-58
2022/03/06 00:44:24;;;;;;;20.27;7.95;;;;;;;;;;5038299;28;20055;-53
2022/03/06 00:46:50;;;;;;;19.35;6.85;;;;;;;;;;5021344;28;20045;-57
2022/03/06 00:49:17;;;;;;;26.20;7.40;;;;;;;;;;5025291;28;20053;-56
2022/03/06 00:51:43;;;;;;;27.20;8.90;;;;;;;;;;5041452;28;20177;-60
2022/03/06 00:54:11;;;;;;;20.17;8.10;;;;;;;;;;5041959;28;20093;-60
2022/03/06 00:56:38;;;;;;;20.27;7.33;;;;;;;;;;5024242;28;20072;-61
2022/03/06 00:59:04;;;;;;;21.58;7.43;;;;;;;;;;5021195;28;20316;-59
2022/03/06 01:01:31;;;;;;;19.45;7.07;;;;;;;;;;5039924;28;20051;-59
2022/03/06 01:03:57;;;;;;;22.02;7.95;;;;;;;;;;5024004;28;20053;-61
2022/03/06 01:06:24;;;;;;;18.70;6.70;;;;;;;;;;5023020;28;20048;-59
2022/03/06 01:08:50;;;;;;;20.08;7.28;;;;;;;;;;5025167;28;20064;-57
2022/03/06 01:11:18;;;;;;;21.20;7.85;;;;;;;;;;5021672;28;20028;-57
2022/03/06 01:13:45;;;;;;;21.50;7.35;;;;;;;;;;5022779;28;20045;-55
2022/03/06 01:16:14;;;;;;;19.83;6.65;;;;;;;;;;5024325;28;20053;-57
2022/03/06 01:18:41;;;;;;;19.63;6.97;;;;;;;;;;5026237;28;20140;-52
2022/03/06 01:21:07;;;;;;;23.33;9.05;;;;;;;;;;5022310;28;20041;-57
2022/03/06 01:23:35;;;;;;;19.55;7.10;;;;;;;;;;5047875;28;20118;-56
2022/03/06 01:26:01;;;;;;;19.80;7.53;;;;;;;;;;5026078;28;20131;-56
2022/03/06 01:28:29;;;;;;;20.63;6.60;;;;;;;;;;5025319;28;20057;-55
2022/03/06 01:30:56;;;;;;;22.60;7.30;;;;;;;;;;5025337;28;20059;-56
2022/03/06 01:33:22;;;;;;;21.50;7.10;;;;;;;;;;5043845;28;20152;-60
2022/03/06 01:35:49;;;;;;;16.73;6.65;;;;;;;;;;5022839;28;20522;-56
2022/03/06 01:38:16;;;;;;;14.40;6.13;;;;;;;;;;5024527;28;20080;-59
2022/03/06 01:40:42;;;;;;;20.50;7.32;;;;;;;;;;5022969;28;20064;-55
2022/03/06 01:43:09;;;;;;;24.42;7.65;;;;;;;;;;5040033;28;20140;-58
2022/03/06 01:45:37;;;;;;;15.90;5.80;;;;;;;;;;5025992;28;20061;-55
2022/03/06 01:48:08;;;;;;;14.40;5.10;;;;;;;;;;5020706;28;20156;-52
2022/03/06 01:50:35;;;;;;;14.57;5.32;;;;;;;;;;5025117;28;20053;-58
2022/03/06 01:53:02;;;;;;;14.48;5.78;;;;;;;;;;5021157;28;20080;-53
2022/03/06 01:55:28;;;;;;;16.05;6.25;;;;;;;;;;5026109;28;20150;-57
2022/03/06 01:57:56;;;;;;;16.90;5.57;;;;;;;;;;5018682;28;20077;-51
2022/03/06 02:00:23;;;;;;;17.30;5.63;;;;;;;;;;5026757;28;20049;-53
2022/03/06 02:02:51;;;;;;;17.38;5.80;;;;;;;;;;5018811;28;20130;-54
2022/03/06 02:05:18;;;;;;;18.15;6.95;;;;;;;;;;5021898;28;20069;-52
2022/03/06 02:07:44;;;;;;;12.38;5.07;;;;;;;;;;5023604;28;20060;-57
2022/03/06 02:10:13;;;;;;;21.60;6.97;;;;;;;;;;5021858;28;20160;-52
2022/03/06 02:12:40;;;;;;;16.85;6.28;;;;;;;;;;5017339;28;20064;-52
2022/03/06 02:15:12;;;;;;;22.90;7.32;;;;;;;;;;5009327;28;20067;-58
2022/03/06 02:17:39;;;;;;;17.25;7.03;;;;;;;;;;5023410;28;20049;-52
2022/03/06 02:20:08;;;;;;;22.15;7.28;;;;;;;;;;5013097;28;20100;-56
2022/03/06 02:22:37;;;;;;;18.92;6.78;;;;;;;;;;5025996;28;20057;-55
2022/03/06 02:25:05;;;;;;;18.60;6.68;;;;;;;;;;5020056;28;20051;-54
2022/03/06 02:27:32;;;;;;;16.10;6.10;;;;;;;;;;5021150;28;20053;-60
2022/03/06 02:29:58;;;;;;;17.83;6.55;;;;;;;;;;5019924;28;20098;-56
2022/03/06 02:32:25;;;;;;;14.90;6.30;;;;;;;;;;5024444;28;20053;-52
2022/03/06 02:34:52;;;;;;;15.88;6.50;;;;;;;;;;5019540;28;20061;-51
2022/03/06 02:37:22;;;;;;;16.75;7.13;;;;;;;;;;5024789;28;20084;-54
2022/03/06 02:39:50;;;;;;;15.13;5.55;;;;;;;;;;5019934;28;20135;-55
2022/03/06 02:42:26;;;;;;;13.95;6.20;;;;;;;;;;5024017;28;20060;-56
2022/03/06 02:44:53;;;;;;;13.68;5.28;;;;;;;;;;5021521;28;20057;-61
2022/03/06 02:47:21;;;;;;;;;;;;;;;;;;5023152;28;20053;-54
2022/03/06 02:49:48;;;;;;;16.23;5.72;;;;;;;;;;5021444;28;19947;-60
2022/03/06 02:52:14;;;;;;;13.93;5.40;;;;;;;;;;5024872;28;20089;-51
2022/03/06 02:54:41;;;;;;;15.05;5.95;;;;;;;;;;5023670;28;20087;-56
2022/03/06 02:57:09;;;;;;;12.38;5.03;;;;;;;;;;5011165;28;20063;-60
2022/03/06 02:59:36;;;;;;;18.25;7.45;;;;;;;;;;5041104;28;20147;-53
2022/03/06 03:02:08;;;;;;;19.10;5.32;;;;;;;;;;4229046;22;20219;-52
2022/03/06 03:04:37;;;;;;;13.77;5.32;;;;;;;;;;6079337;23;20055;-60
2022/03/06 03:07:04;;;;;;;18.33;6.28;;;;;;;;;;6102901;23;20116;-55
2022/03/06 03:09:31;;;;;;;14.32;5.70;;;;;;;;;;6102441;23;20047;-56
2022/03/06 03:11:57;;;;;;;14.80;5.63;;;;;;;;;;6100336;23;20043;-56
2022/03/06 03:14:31;;;;;;;15.98;6.43;;;;;;;;;;6060406;23;20040;-55
2022/03/06 03:16:58;;;;;;;15.35;5.30;;;;;;;;;;6098301;23;20405;-52
2022/03/06 03:19:24;;;;;;;12.38;5.20;;;;;;;;;;6060631;23;20028;-52
2022/03/06 03:21:51;;;;;;;14.45;6.00;;;;;;;;;;6060334;23;20043;-52
2022/03/06 03:24:20;;;;;;;15.25;5.63;;;;;;;;;;6053411;23;20048;-54
2022/03/06 03:26:47;;;;;;;17.33;5.68;;;;;;;;;;6057120;23;20028;-56
2022/03/06 03:29:13;;;;;;;15.32;5.00;;;;;;;;;;6048622;23;20032;-57
2022/03/06 03:31:41;;;;;;;19.80;6.85;;;;;;;;;;6059847;23;20120;-54
2022/03/06 03:34:08;;;;;;;14.43;5.57;;;;;;;;;;6051974;23;20443;-54
2022/03/06 03:36:35;;;;;;;14.02;5.75;;;;;;;;;;6061116;23;20278;-54
2022/03/06 03:39:01;;;;;;;14.52;5.25;;;;;;;;;;6106447;23;20138;-54
2022/03/06 03:41:28;;;;;;;13.07;5.63;;;;;;;;;;6060365;23;20110;-52
2022/03/06 03:44:00;;;;;;;14.93;5.78;;;;;;;;;;6063432;23;20396;-54
2022/03/06 03:46:26;;;;;;;18.38;6.93;;;;;;;;;;6056738;23;20115;-60
2022/03/06 03:48:54;;;;;;;13.23;5.35;;;;;;;;;;6064216;23;20040;-57
2022/03/06 03:51:20;;;;;;;14.23;5.73;;;;;;;;;;6059699;23;20036;-57
2022/03/06 03:53:47;;;;;;;11.55;5.00;;;;;;;;;;6065332;23;20773;-55
2022/03/06 03:56:14;;;;;;;12.88;5.28;;;;;;;;;;6059516;23;20072;-60
2022/03/06 03:58:40;;;;;;;13.43;5.68;;;;;;;;;;6112717;23;20465;-60
2022/03/06 04:01:06;;;;;;;13.77;5.50;;;;;;;;;;6064011;23;20040;-58
2022/03/06 04:03:33;;;;;;;15.20;5.00;;;;;;;;;;6051606;23;20075;-60
2022/03/06 04:06:01;;;;;;;16.65;6.45;;;;;;;;;;6045933;23;20120;-57
2022/03/06 04:08:28;;;;;;;15.40;6.35;;;;;;;;;;6052567;23;20045;-59
2022/03/06 04:10:56;;;;;;;13.00;5.10;;;;;;;;;;6057539;23;20036;-62
2022/03/06 04:13:23;;;;;;;;;;;;;;;;;;6053491;23;20049;-49
2022/03/06 04:15:50;;;;;;;10.90;4.32;;;;;;;;;;6056586;23;19927;-53
2022/03/06 04:18:16;;;;;;;13.15;5.65;;;;;;;;;;6077567;23;20682;-51
2022/03/06 04:20:43;;;;;;;17.48;5.95;;;;;;;;;;6056339;23;20047;-53
2022/03/06 04:23:11;;;;;;;11.02;4.38;;;;;;;;;;6057683;23;20444;-52
2022/03/06 04:25:38;;;;;;;16.48;5.63;;;;;;;;;;6055008;23;20489;-57
2022/03/06 04:28:05;;;;;;;13.20;5.25;;;;;;;;;;6083466;23;20029;-59
2022/03/06 04:30:32;;;;;;;17.20;5.63;;;;;;;;;;6079177;23;20044;-53
2022/03/06 04:32:58;;;;;;;9.93;4.38;;;;;;;;;;6058795;23;20036;-57
2022/03/06 04:35:27;;;;;;;14.13;5.30;;;;;;;;;;6077144;23;20037;-55
2022/03/06 04:37:54;;;;;;;14.90;5.80;;;;;;;;;;6081233;23;20057;-58
2022/03/06 04:40:22;;;;;;;15.70;5.95;;;;;;;;;;6079298;23;20037;-52
2022/03/06 04:42:48;;;;;;;14.40;5.87;;;;;;;;;;6082639;23;20143;-52
2022/03/06 04:45:15;;;;;;;14.82;5.70;;;;;;;;;;6053620;23;20060;-52
2022/03/06 04:47:42;;;;;;;12.85;4.32;;;;;;;;;;6057327;23;20100;-50
2022/03/06 04:50:08;;;;;;;15.38;5.75;;;;;;;;;;6075599;23;20032;-51
2022/03/06 04:52:35;;;;;;;14.43;5.72;;;;;;;;;;6081114;23;20048;-50
2022/03/06 04:55:02;;;;;;;13.05;5.07;;;;;;;;;;6076740;23;20086;-50
2022/03/06 04:57:30;;;;;;;11.18;4.82;;;;;;;;;;6081357;23;20060;-59
2022/03/06 04:59:56;;;;;;;19.07;5.70;;;;;;;;;;6075837;23;20564;-55
2022/03/06 05:02:23;;;;;;;16.60;6.00;;;;;;;;;;6060174;23;20037;-54
2022/03/06 05:04:50;;;;;;;12.45;5.15;;;;;;;;;;6109850;23;20046;-55
2022/03/06 05:07:17;;;;;;;12.33;5.30;;;;;;;;;;6059568;23;20044;-57
2022/03/06 05:09:43;;;;;;;12.20;4.65;;;;;;;;;;6109583;23;20097;-54
2022/03/06 05:12:10;;;;;;;11.73;3.83;;;;;;;;;;6057558;23;20082;-60
2022/03/06 05:14:40;;;;;;;16.42;6.45;;;;;;;;;;6109376;23;20100;-59
2022/03/06 05:17:06;;;;;;;16.27;6.07;;;;;;;;;;6105066;23;20082;-58
2022/03/06 05:19:32;;;;;;;14.57;5.18;;;;;;;;;;6110478;23;20028;-60
2022/03/06 05:21:59;;;;;;;16.17;5.97;;;;;;;;;;6059065;23;20128;-59
2022/03/06 05:24:25;;;;;;;14.23;5.93;;;;;;;;;;6062276;23;20118;-61
2022/03/06 05:26:52;;;;;;;11.88;5.53;;;;;;;;;;6057381;23;20116;-56
2022/03/06 05:29:18;;;;;;;9.07;3.97;;;;;;;;;;6111463;23;20078;-60
2022/03/06 05:31:46;;;;;;;12.15;4.85;;;;;;;;;;6057788;23;20082;-56
2022/03/06 05:34:14;;;;;;;17.63;5.67;;;;;;;;;;6111287;23;20082;-61
2022/03/06 05:36:41;;;;;;;14.87;4.97;;;;;;;;;;6107513;23;20290;-57
2022/03/06 05:39:08;;;;;;;12.60;5.10;;;;;;;;;;6111139;23;20044;-60
2022/03/06 05:41:34;;;;;;;14.40;5.63;;;;;;;;;;6058841;23;20032;-60
2022/03/06 05:44:01;;;;;;;11.25;4.28;;;;;;;;;;6110003;23;20090;-60
2022/03/06 05:46:28;;;;;;;11.95;5.43;;;;;;;;;;6110422;23;20082;-56
2022/03/06 05:48:56;;;;;;;13.57;5.38;;;;;;;;;;6108377;23;20036;-57
2022/03/06 05:51:22;;;;;;;14.77;5.40;;;;;;;;;;6111983;23;20058;-58
2022/03/06 05:53:49;;;;;;;12.85;5.07;;;;;;;;;;6108459;23;20286;-60
2022/03/06 05:56:16;;;;;;;12.32;5.25;;;;;;;;;;6112011;23;20113;-61
2022/03/06 05:58:42;;;;;;;8.82;4.03;;;;;;;;;;6107460;23;20074;-57
2022/03/06 06:01:09;;;;;;;11.68;5.30;;;;;;;;;;6060858;23;20066;-59
2022/03/06 06:03:35;;;;;;;14.75;5.25;;;;;;;;;;6051292;23;20041;-61
2022/03/06 06:06:04;;;;;;;12.98;5.30;;;;;;;;;;6055544;23;20040;-57
2022/03/06 06:08:30;;;;;;;14.02;5.35;;;;;;;;;;6036766;23;20032;-58
2022/03/06 06:10:57;;;;;;;10.88;5.32;;;;;;;;;;6056270;23;20036;-61
2022/03/06 06:13:23;;;;;;;11.63;5.25;;;;;;;;;;6052459;23;20032;-58
2022/03/06 06:15:52;;;;;;;16.15;4.88;;;;;;;;;;6056164;23;20029;-59
2022/03/06 06:18:19;;;;;;;13.77;5.47;;;;;;;;;;6052207;23;20119;-53
2022/03/06 06:20:46;;;;;;;14.02;5.00;;;;;;;;;;6055964;23;20032;-53
2022/03/06 06:23:13;;;;;;;10.27;4.18;;;;;;;;;;6052029;23;20044;-54
2022/03/06 06:25:40;;;;;;;12.02;4.93;;;;;;;;;;6056531;23;20111;-57
2022/03/06 06:28:07;;;;;;;12.38;5.15;;;;;;;;;;6053817;23;20036;-54
2022/03/06 06:30:33;;;;;;;15.60;5.57;;;;;;;;;;6054801;23;20049;-55
2022/03/06 06:33:00;;;;;;;9.85;4.40;;;;;;;;;;6056286;23;20045;-51
2022/03/06 06:35:28;;;;;;;12.60;4.70;;;;;;;;;;6051707;23;20036;-54
2022/03/06 06:37:54;;;;;;;10.15;4.40;;;;;;;;;;6055324;23;20036;-55
2022/03/06 06:40:22;;;;;;;11.88;5.10;;;;;;;;;;6051172;23;20048;-57
2022/03/06 06:42:49;;;;;;;12.05;5.03;;;;;;;;;;6055722;23;20045;-55
2022/03/06 06:45:16;;;;;;;15.27;5.35;;;;;;;;;;6051946;23;20063;-52
2022/03/06 06:47:42;;;;;;;11.50;4.43;;;;;;;;;;6056031;23;20060;-51
2022/03/06 06:50:09;;;;;;;11.93;5.03;;;;;;;;;;6051604;23;20036;-54
2022/03/06 06:52:36;;;;;;;12.60;4.30;;;;;;;;;;6058016;23;20037;-54
2022/03/06 06:55:03;;;;;;;10.30;4.55;;;;;;;;;;6052575;23;20068;-53
2022/03/06 06:57:31;;;;;;;11.77;4.60;;;;;;;;;;6055049;23;20033;-54
2022/03/06 06:59:57;;;;;;;12.68;4.18;;;;;;;;;;6050744;23;20060;-52
2022/03/06 07:02:24;;;;;;;14.00;6.40;;;;;;;;;;6057542;23;20052;-52
2022/03/06 07:04:51;;;;;;;12.43;5.38;;;;;;;;;;6104090;23;20047;-53
2022/03/06 07:07:18;;;;;;;11.27;4.97;;;;;;;;;;6108760;23;20074;-55
2022/03/06 07:09:44;;;;;;;15.25;6.88;;;;;;;;;;6059341;23;20042;-54
2022/03/06 07:12:11;;;;;;;11.90;5.40;;;;;;;;;;6060582;23;20118;-52
2022/03/06 07:14:39;;;;;;;9.88;4.47;;;;;;;;;;6061592;23;20044;-55
2022/03/06 07:17:06;;;;;;;13.60;5.05;;;;;;;;;;6057911;23;20032;-53
2022/03/06 07:19:32;;;;;;;12.55;5.00;;;;;;;;;;6061298;23;20063;-51
2022/03/06 07:21:59;;;;;;;13.95;4.70;;;;;;;;;;6058456;23;20071;-54
2022/03/06 07:24:31;;;;;;;11.98;4.53;;;;;;;;;;6063515;23;20038;-59
2022/03/06 07:26:57;;;;;;;13.00;4.95;;;;;;;;;;6059794;23;20047;-58
2022/03/06 07:29:24;;;;;;;14.35;5.00;;;;;;;;;;6110116;23;20106;-53
2022/03/06 07:31:53;;;;;;;11.43;5.53;;;;;;;;;;6101975;23;20047;-53
2022/03/06 07:34:22;;;;;;;10.73;4.55;;;;;;;;;;6060166;23;20105;-54
2022/03/06 07:36:48;;;;;;;10.80;5.13;;;;;;;;;;6058221;23;20035;-55
2022/03/06 07:39:15;;;;;;;13.10;6.05;;;;;;;;;;6063090;23;20177;-54
2022/03/06 07:41:41;;;;;;;12.00;5.43;;;;;;;;;;6060228;23;20094;-55
2022/03/06 07:44:08;;;;;;;8.60;4.07;;;;;;;;;;6062790;23;20048;-60
2022/03/06 07:46:35;;;;;;;13.20;5.10;;;;;;;;;;6058345;23;20047;-60
2022/03/06 07:49:03;;;;;;;9.85;3.75;;;;;;;;;;6064285;23;20387;-61
2022/03/06 07:51:29;;;;;;;11.45;5.18;;;;;;;;;;6060506;23;20096;-61
2022/03/06 07:53:59;;;;;;;9.40;4.13;;;;;;;;;;6110178;23;20082;-58
2022/03/06 07:56:26;;;;;;;12.98;4.63;;;;;;;;;;6061829;23;20136;-55
2022/03/06 07:58:52;;;;;;;13.43;5.15;;;;;;;;;;6058186;23;20044;-55
2022/03/06 08:01:19;;;;;;;12.05;4.63;;;;;;;;;;6064694;23;20043;-57
2022/03/06 08:03:46;;;;;;;10.10;4.45;;;;;;;;;;6056762;23;20032;-51
2022/03/06 08:06:14;;;;;;;13.20;4.90;;;;;;;;;;6059428;23;20040;-56
2022/03/06 08:08:40;;;;;;;11.90;5.00;;;;;;;;;;6108191;23;20338;-54
2022/03/06 08:11:07;;;;;;;12.82;5.35;;;;;;;;;;6057677;23;20047;-54
2022/03/06 08:13:33;;;;;;;12.23;5.18;;;;;;;;;;6059248;23;20047;-52
2022/03/06 08:16:00;;;;;;;12.02;5.18;;;;;;;;;;6061914;23;20106;-55
2022/03/06 08:18:27;;;;;;;9.38;3.38;;;;;;;;;;6059824;23;20036;-53
2022/03/06 08:20:56;;;;;;;10.35;4.35;;;;;;;;;;6064325;23;20043;-56
2022/03/06 08:23:24;;;;;;;10.48;3.85;;;;;;;;;;6060295;23;20082;-58
2022/03/06 08:25:53;;;;;;;16.73;5.75;;;;;;;;;;6064031;23;20036;-58
2022/03/06 08:28:19;;;;;;;8.88;3.85;;;;;;;;;;6055272;23;20032;-57
2022/03/06 08:30:46;;;;;;;10.38;4.47;;;;;;;;;;6063263;23;20054;-56
2022/03/06 08:33:12;;;;;;;10.68;4.78;;;;;;;;;;6058744;23;20070;-53
2022/03/06 08:35:40;;;;;;;14.40;5.30;;;;;;;;;;6062389;23;20036;-55
2022/03/06 08:38:06;;;;;;;10.57;4.55;;;;;;;;;;6061451;23;20036;-55
2022/03/06 08:40:34;;;;;;;11.57;4.40;;;;;;;;;;6056797;23;20111;-56
2022/03/06 08:43:01;;;;;;;8.40;3.63;;;;;;;;;;6063245;23;20039;-55
2022/03/06 08:45:28;;;;;;;12.43;3.50;;;;;;;;;;6059082;23;20039;-59
2022/03/06 08:47:54;;;;;;;9.20;3.38;;;;;;;;;;6063316;23;20096;-58
2022/03/06 08:50:21;;;;;;;10.68;4.90;;;;;;;;;;6059194;23;20101;-60
2022/03/06 08:52:47;;;;;;;12.77;4.68;;;;;;;;;;6062248;23;20040;-57
2022/03/06 08:55:14;;;;;;;10.68;3.45;;;;;;;;;;6056660;23;20036;-60
2022/03/06 08:57:42;;;;;;;8.43;3.35;;;;;;;;;;6109762;23;20119;-56
2022/03/06 09:00:09;;;;;;;10.52;3.53;;;;;;;;;;6058369;23;20035;-54
2022/03/06 09:02:36;;;;;;;10.27;3.97;;;;;;;;;;6064308;23;20036;-61
2022/03/06 09:05:03;;;;;;;7.30;3.42;;;;;;;;;;6059093;23;20097;-57
2022/03/06 09:07:29;;;;;;;10.88;3.67;;;;;;;;;;6111512;23;20032;-57
2022/03/06 09:09:56;;;;;;;6.13;3.10;;;;;;;;;;6107108;23;20028;-58
2022/03/06 09:12:23;;;;;;;8.88;4.10;;;;;;;;;;6063158;23;20024;-57
2022/03/06 09:14:51;;;;;;;13.35;3.92;;;;;;;;;;6062198;23;20036;-58
2022/03/06 09:17:18;;;;;;;9.38;3.33;;;;;;;;;;6110499;23;20032;-56
2022/03/06 09:19:45;;;;;;;6.05;2.78;;;;;;;;;;6110288;23;20106;-58
2022/03/06 09:22:11;;;;;;;9.30;3.45;;;;;;;;;;6108718;23;20123;-58
2022/03/06 09:24:39;;;;;;;7.10;3.25;;;;;;;;;;6064230;23;20040;-59
2022/03/06 09:27:06;;;;;;;7.72;3.03;;;;;;;;;;6059207;23;20055;-59
2022/03/06 09:29:33;;;;;;;6.57;2.65;;;;;;;;;;6061468;23;20101;-59
2022/03/06 09:32:01;;;;;;;7.80;3.10;;;;;;;;;;6057623;23;20043;-56
2022/03/06 09:34:30;;;;;;;8.02;3.10;;;;;;;;;;6062363;23;20074;-54
2022/03/06 09:36:57;;;;;;;6.32;2.88;;;;;;;;;;6057112;23;20032;-58
2022/03/06 09:39:23;;;;;;;7.47;3.28;;;;;;;;;;6063126;23;20079;-57
2022/03/06 09:41:51;;;;;;;7.25;2.63;;;;;;;;;;6057116;23;20054;-52
2022/03/06 09:44:17;;;;;;;6.93;2.92;;;;;;;;;;6063767;23;20095;-53
2022/03/06 09:46:48;;;;;;;8.23;2.28;;;;;;;;;;6061875;23;20044;-55
2022/03/06 09:49:16;;;;;;;8.70;3.10;;;;;;;;;;6115082;23;20044;-52
2022/03/06 09:51:43;;;;;;;3.95;1.88;;;;;;;;;;6059724;23;20086;-53
2022/03/06 09:54:12;;;;;;;5.65;2.67;;;;;;;;;;6064709;23;20040;-49
2022/03/06 09:56:39;;;;;;;8.05;2.58;;;;;;;;;;6055149;23;20032;-56
2022/03/06 09:59:06;;;;;;;4.90;2.22;;;;;;;;;;6063099;23;20032;-55
2022/03/06 10:01:32;;;;;;;4.43;1.98;;;;;;;;;;6107565;23;20097;-49
2022/03/06 10:04:19;;;;;;;12.88;2.67;;;;;;;;;;6110010;23;20102;-53
2022/03/06 10:06:57;;;;;;;6.32;2.72;;;;;;;;;;6055860;23;20032;-52
2022/03/06 10:09:23;;;;;;;7.60;2.70;;;;;;;;;;6062611;23;20094;-54
2022/03/06 10:11:51;;;;;;;1.80;0.95;;;;;;;;;;6107757;23;20067;-47
2022/03/06 10:14:33;;;;;;;6.60;2.67;;;;;;;;;;6061190;23;20046;-49
2022/03/06 10:17:08;;;;;;;10.40;3.35;;;;;;;;;;6085635;23;20032;-51
2022/03/06 10:19:47;;;;;;;4.88;2.17;;;;;;;;;;6108827;23;20043;-52
2022/03/06 10:22:15;;;;;;;13.65;3.50;;;;;;;;;;6057733;23;20049;-48
2022/03/06 10:24:46;;;;;;;13.32;3.70;;;;;;;;;;6109958;23;20033;-51
2022/03/06 10:27:12;;;;;;;7.05;2.95;;;;;;;;;;6061208;23;20035;-52
2022/03/06 10:29:39;;;;;;;6.85;2.70;;;;;;;;;;6056464;23;20036;-52
2022/03/06 10:32:07;;;;;;;6.55;2.90;;;;;;;;;;6038525;23;20054;-52
2022/03/06 10:34:38;;;;;;;8.07;3.53;;;;;;;;;;6054032;23;20043;-53
2022/03/06 10:37:05;;;;;;;5.82;2.67;;;;;;;;;;6060915;23;20094;-50
2022/03/06 10:39:44;;;;;;;5.10;2.42;;;;;;;;;;6058109;23;20039;-53
2022/03/06 10:42:11;;;;;;;7.13;2.90;;;;;;;;;;6062512;23;20100;-58
2022/03/06 10:44:47;;;;;;;6.65;2.58;;;;;;;;;;6057651;23;20043;-56
2022/03/06 10:47:13;;;;;;;9.52;3.50;;;;;;;;;;6063129;23;20036;-55
2022/03/06 10:49:40;;;;;;;9.35;3.60;;;;;;;;;;6059896;23;20066;-50
2022/03/06 10:52:13;;;;;;;5.95;2.53;;;;;;;;;;6062290;23;20040;-59
2022/03/06 10:54:53;;;;;;;9.30;2.90;;;;;;;;;;6105752;23;20044;-50
2022/03/06 10:57:20;;;;;;;6.57;2.72;;;;;;;;;;6062263;23;20244;-52
2022/03/06 10:59:49;;;;;;;6.30;2.58;;;;;;;;;;6056410;23;20036;-52
2022/03/06 11:02:17;;;;;;;9.38;3.30;;;;;;;;;;6061701;23;20036;-55
2022/03/06 11:04:45;;;;;;;4.35;1.83;;;;;;;;;;6056774;23;20071;-52
2022/03/06 11:07:12;;;;;;;7.70;3.13;;;;;;;;;;6064353;23;20117;-54
2022/03/06 11:09:39;;;;;;;8.63;3.42;;;;;;;;;;6046823;23;20055;-56
2022/03/06 11:12:08;;;;;;;4.80;2.33;;;;;;;;;;6063240;23;20032;-58
2022/03/06 11:14:38;;;;;;;7.03;3.13;;;;;;;;;;6107614;23;20062;-58
2022/03/06 11:17:04;;;;;;;7.63;3.08;;;;;;;;;;6115067;23;20039;-56
2022/03/06 11:19:33;;;;;;;6.10;2.38;;;;;;;;;;6058288;23;20039;-55
2022/03/06 11:22:03;;;;;;;7.53;2.88;;;;;;;;;;6060556;23;20075;-54
2022/03/06 11:24:31;;;;;;;7.63;3.55;;;;;;;;;;6062841;23;20048;-53
2022/03/06 11:27:13;;;;;;;3.78;2.05;;;;;;;;;;6056123;23;20090;-51
2022/03/06 11:29:55;;;;;;;4.55;1.98;;;;;;;;;;6061709;23;20044;-56
2022/03/06 11:32:25;;;;;;;8.15;3.72;;;;;;;;;;6059109;23;20043;-53
2022/03/06 11:35:00;;;;;;;9.65;3.75;;;;;;;;;;6060903;23;20036;-49
2022/03/06 11:37:28;;;;;;;6.13;1.95;;;;;;;;;;6057942;23;20042;-55
2022/03/06 11:39:54;;;;;;;7.10;3.43;;;;;;;;;;6060750;23;20158;-53
2022/03/06 11:42:40;;;;;;;6.25;2.55;;;;;;;;;;6056517;23;20063;-52
2022/03/06 11:45:09;;;;;;;4.03;1.95;;;;;;;;;;6059728;23;20067;-54
2022/03/06 11:47:39;;;;;;;10.70;3.95;;;;;;;;;;6055879;23;20032;-57
2022/03/06 11:50:07;;;;;;;8.20;3.08;;;;;;;;;;6107266;23;20043;-50
2022/03/06 11:52:36;;;;;;;7.30;3.13;;;;;;;;;;6053446;23;20071;-54
2022/03/06 11:55:02;;;;;;;;;;;;;;;;;;6059540;23;20048;-56
2022/03/06 11:57:36;;;;;;;8.82;2.90;;;;;;;;;;6064794;23;19927;-51
2022/03/06 12:00:15;;;;;;;9.15;2.60;;;;;;;;;;6059023;23;20044;-52
2022/03/06 12:02:45;;;;;;;14.02;4.18;;;;;;;;;;6056991;23;20036;-58
2022/03/06 12:05:16;;;;;;;8.40;3.03;;;;;;;;;;6060554;23;20055;-48
2022/03/06 12:07:43;;;;;;;11.95;4.38;;;;;;;;;;6056653;23;20032;-54
2022/03/06 12:10:10;;;;;;;5.97;2.72;;;;;;;;;;6109885;23;20032;-52
2022/03/06 12:12:37;;;;;;;8.27;3.58;;;;;;;;;;6057283;23;20089;-48
2022/03/06 12:15:13;;;;;;;7.57;2.60;;;;;;;;;;6062842;23;20044;-53
2022/03/06 12:17:42;;;;;;;7.97;2.78;;;;;;;;;;6105402;23;20040;-57
2022/03/06 12:20:28;;;;;;;7.65;3.20;;;;;;;;;;6108906;23;20094;-57
2022/03/06 12:23:03;;;;;;;6.97;3.05;;;;;;;;;;6044023;23;20032;-60
2022/03/06 12:25:31;;;;;;;12.48;3.88;;;;;;;;;;6059437;23;20037;-56
2022/03/06 12:28:17;;;;;;;7.72;3.38;;;;;;;;;;6056731;23;20085;-55
2022/03/06 12:30:44;;;;;;;10.20;3.80;;;;;;;;;;6060698;23;20060;-56
2022/03/06 12:33:35;;;;;;;7.85;3.30;;;;;;;;;;6056350;23;20086;-57
2022/03/06 12:36:20;;;;;;;9.77;3.00;;;;;;;;;;6039466;23;20036;-57
2022/03/06 12:38:47;;;;;;;7.68;3.40;;;;;;;;;;6056192;23;20040;-54
2022/03/06 12:41:14;;;;;;;5.40;2.47;;;;;;;;;;6079549;23;20150;-55
2022/03/06 12:43:47;;;;;;;6.72;2.90;;;;;;;;;;6070295;23;20036;-58
2022/03/06 12:46:15;;;;;;;8.57;3.28;;;;;;;;;;6112469;23;20054;-61
2022/03/06 12:48:42;;;;;;;8.77;3.88;;;;;;;;;;6058485;23;20055;-62
2022/03/06 12:51:08;;;;;;;8.15;3.22;;;;;;;;;;6061112;23;20036;-61
2022/03/06 12:53:42;;;;;;;8.95;3.50;;;;;;;;;;6091672;23;20039;-57
2022/03/06 12:56:09;;;;;;;9.13;3.47;;;;;;;;;;6109524;23;20047;-53
2022/03/06 12:58:39;;;;;;;4.15;2.33;;;;;;;;;;6104689;23;20044;-55
2022/03/06 13:01:09;;;;;;;9.27;3.40;;;;;;;;;;6061057;23;20043;-54
2022/03/06 13:03:36;;;;;;;9.30;3.50;;;;;;;;;;6066802;23;20090;-58
2022/03/06 13:06:13;;;;;;;9.65;3.30;;;;;;;;;;6108988;23;20063;-54
2022/03/06 13:08:42;;;;;;;9.00;4.03;;;;;;;;;;6058885;23;20059;-59
2022/03/06 13:11:09;;;;;;;9.50;3.47;;;;;;;;;;6106656;23;20043;-54
2022/03/06 13:13:36;;;;;;;7.38;3.65;;;;;;;;;;6109480;23;20032;-53
2022/03/06 13:16:07;;;;;;;7.50;3.42;;;;;;;;;;6103728;23;20044;-52
2022/03/06 13:18:34;;;;;;;7.65;3.10;;;;;;;;;;6082592;23;20037;-49
2022/03/06 13:21:00;;;;;;;7.15;3.03;;;;;;;;;;6062063;23;20070;-55
2022/03/06 13:23:27;;;;;;;11.15;3.65;;;;;;;;;;6060053;23;20039;-53
2022/03/06 13:25:55;;;;;;;8.32;3.53;;;;;;;;;;6057147;23;20122;-55
2022/03/06 13:28:22;;;;;;;7.43;3.45;;;;;;;;;;6106501;23;20040;-50
2022/03/06 13:30:50;;;;;;;7.32;3.53;;;;;;;;;;6056008;23;20027;-56
2022/03/06 13:33:20;;;;;;;8.52;3.30;;;;;;;;;;6109578;23;20032;-54
2022/03/06 13:35:50;;;;;;;6.05;2.70;;;;;;;;;;6056849;23;20036;-53
2022/03/06 13:38:23;;;;;;;7.80;3.08;;;;;;;;;;6062186;23;20036;-52
2022/03/06 13:40:50;;;;;;;7.80;3.13;;;;;;;;;;6057495;23;20131;-57
2022/03/06 13:43:19;;;;;;;7.22;3.00;;;;;;;;;;6109807;23;20034;-54
2022/03/06 13:45:53;;;;;;;9.02;3.67;;;;;;;;;;6098802;23;20040;-56
2022/03/06 13:48:19;;;;;;;5.65;2.10;;;;;;;;;;6061734;23;20044;-58
2022/03/06 13:50:50;;;;;;;7.22;3.20;;;;;;;;;;6040652;23;20036;-57
2022/03/06 13:53:19;;;;;;;7.07;3.20;;;;;;;;;;6035263;23;20032;-58
2022/03/06 13:55:50;;;;;;;6.45;3.20;;;;;;;;;;6060691;23;20118;-58
2022/03/06 13:58:18;;;;;;;7.15;2.90;;;;;;;;;;6099409;23;20063;-56
2022/03/06 14:00:45;;;;;;;;;;;;;;;;;;6105734;23;20032;-58
2022/03/06 14:03:15;;;;;;;9.38;3.17;;;;;;;;;;6051015;23;19974;-54
2022/03/06 14:05:43;;;;;;;8.45;3.67;;;;;;;;;;6076834;23;20036;-60
2022/03/06 14:08:15;;;;;;;7.13;3.15;;;;;;;;;;6080777;23;20048;-54
2022/03/06 14:10:43;;;;;;;6.55;2.55;;;;;;;;;;6050902;23;20047;-54
2022/03/06 14:13:27;;;;;;;6.65;2.88;;;;;;;;;;6067702;23;20055;-55
2022/03/06 14:15:55;;;;;;;9.40;3.13;;;;;;;;;;6033346;23;20043;-52
2022/03/06 14:18:36;;;;;;;5.95;2.75;;;;;;;;;;6053887;23;20044;-56
2022/03/06 14:21:06;;;;;;;6.85;3.05;;;;;;;;;;6108378;23;20044;-59
2022/03/06 14:23:33;;;;;;;7.15;2.78;;;;;;;;;;6052863;23;20039;-57
2022/03/06 14:26:01;;;;;;;8.20;3.00;;;;;;;;;;6107900;23;20040;-55
2022/03/06 14:28:28;;;;;;;6.07;2.45;;;;;;;;;;6053016;23;20040;-57
2022/03/06 14:30:55;;;;;;;7.73;2.73;;;;;;;;;;6059912;23;20047;-55
2022/03/06 14:33:21;;;;;;;9.80;2.80;;;;;;;;;;6055406;23;20032;-56
2022/03/06 14:35:49;;;;;;;7.78;2.88;;;;;;;;;;6096693;23;20036;-58
2022/03/06 14:38:15;;;;;;;5.65;2.60;;;;;;;;;;6103454;23;20032;-57
2022/03/06 14:40:42;;;;;;;5.28;2.45;;;;;;;;;;6108506;23;20036;-54